sensor_id;sensor_type;location;lat;lon;timestamp;temperature;humidity
5200;DHT22;2619;47.868;11.892;2023-07-29T00:00:52;16.00;99.90
5200;DHT22;2619;47.868;11.892;2023-07-29T00:03:18;16.10;99.90
5200;DHT22;2619;47.868;11.892;2023-07-29T00:05:43;16.00;99.90
5200;DHT22;2619;47.868;11.892;2023-07-29T00:08:09;16.00;99.90
5200;DHT22;2619;47.868;11.892;2023-07-29T00:10:38;15.90;99.90
5200;DHT22;2619;47.868;11.892;2023-07-29T00:13:04;15.80;99.90
5200;DHT22;2619;47.868;11.892;2023-07-29T00:15:32;15.80;99.90
5200;DHT22;2619;47.868;11.892;2023-07-29T00:17:57;15.80;99.90
5200;DHT22;2619;47.868;11.892;2023-07-29T00:20:23;15.80;99.90
5200;DHT22;2619;47.868;11.892;2023-07-29T00:22:49;15.80;99.90
5200;DHT22;2619;47.868;11.892;2023-07-29T00:25:20;15.90;99.90
5200;DHT22;2619;47.868;11.892;2023-07-29T00:27:45;15.90;99.90
5200;DHT22;2619;47.868;11.892;2023-07-29T00:30:11;15.90;99.90
5200;DHT22;2619;47.868;11.892;2023-07-29T00:32:37;15.90;99.90
5200;DHT22;2619;47.868;11.892;2023-07-29T00:35:02;15.90;99.90
5200;DHT22;2619;47.868;11.892;2023-07-29T00:37:29;15.90;99.90
5200;DHT22;2619;47.868;11.892;2023-07-29T00:39:55;16.00;99.90
5200;DHT22;2619;47.868;11.892;2023-07-29T00:42:21;16.00;99.90
5200;DHT22;2619;47.868;11.892;2023-07-29T00:44:46;16.00;99.90
5200;DHT22;2619;47.868;11.892;2023-07-29T00:47:15;16.10;99.90
5200;DHT22;2619;47.868;11.892;2023-07-29T00:49:42;16.10;99.90
5200;DHT22;2619;47.868;11.892;2023-07-29T00:52:08;16.10;99.90
5200;DHT22;2619;47.868;11.892;2023-07-29T00:54:36;16.10;99.90
5200;DHT22;2619;47.868;11.892;2023-07-29T00:57:02;16.10;99.90
5200;DHT22;2619;47.868;11.892;2023-07-29T00:59:28;16.10;99.90
5200;DHT22;2619;47.868;11.892;2023-07-29T01:01:55;16.10;99.90
5200;DHT22;2619;47.868;11.892;2023-07-29T01:04:21;16.10;99.90
5200;DHT22;2619;47.868;11.892;2023-07-29T01:10:01;16.10;99.90
5200;DHT22;2619;47.868;11.892;2023-07-29T01:12:47;16.00;99.90
5200;DHT22;2619;47.868;11.892;2023-07-29T01:15:27;16.00;99.90
5200;DHT22;2619;47.868;11.892;2023-07-29T01:17:57;16.00;99.90
5200;DHT22;2619;47.868;11.892;2023-07-29T01:20:25;16.00;99.90
5200;DHT22;2619;47.868;11.892;2023-07-29T01:22:51;16.00;99.90
5200;DHT22;2619;47.868;11.892;2023-07-29T01:25:17;15.90;99.90
5200;DHT22;2619;47.868;11.892;2023-07-29T01:27:45;15.80;99.90
5200;DHT22;2619;47.868;11.892;2023-07-29T01:30:11;15.70;99.90
5200;DHT22;2619;47.868;11.892;2023-07-29T01:35:21;15.80;99.90
5200;DHT22;2619;47.868;11.892;2023-07-29T01:37:52;15.80;99.90
5200;DHT22;2619;47.868;11.892;2023-07-29T01:40:22;15.80;99.90
5200;DHT22;2619;47.868;11.892;2023-07-29T01:42:48;15.70;99.90
5200;DHT22;2619;47.868;11.892;2023-07-29T01:45:14;15.70;99.90
5200;DHT22;2619;47.868;11.892;2023-07-29T01:47:40;15.70;99.90
5200;DHT22;2619;47.868;11.892;2023-07-29T01:50:07;15.70;99.90
5200;DHT22;2619;47.868;11.892;2023-07-29T01:52:33;15.70;99.90
5200;DHT22;2619;47.868;11.892;2023-07-29T01:54:59;15.70;99.90
5200;DHT22;2619;47.868;11.892;2023-07-29T01:57:24;15.70;99.90
5200;DHT22;2619;47.868;11.892;2023-07-29T01:59:50;15.60;99.90
5200;DHT22;2619;47.868;11.892;2023-07-29T02:02:16;15.50;99.90
5200;DHT22;2619;47.868;11.892;2023-07-29T02:04:41;15.40;99.90
5200;DHT22;2619;47.868;11.892;2023-07-29T02:07:07;15.40;99.90
5200;DHT22;2619;47.868;11.892;2023-07-29T02:09:32;15.30;99.90
5200;DHT22;2619;47.868;11.892;2023-07-29T02:11:58;15.30;99.90
5200;DHT22;2619;47.868;11.892;2023-07-29T02:14:23;15.20;99.90
5200;DHT22;2619;47.868;11.892;2023-07-29T02:16:49;15.20;99.90
5200;DHT22;2619;47.868;11.892;2023-07-29T02:19:15;15.20;99.90
5200;DHT22;2619;47.868;11.892;2023-07-29T02:21:41;15.20;99.90
5200;DHT22;2619;47.868;11.892;2023-07-29T02:24:06;15.20;99.90
5200;DHT22;2619;47.868;11.892;2023-07-29T02:26:32;15.20;99.90
5200;DHT22;2619;47.868;11.892;2023-07-29T02:28:57;15.10;99.90
5200;DHT22;2619;47.868;11.892;2023-07-29T02:31:24;15.20;99.90
5200;DHT22;2619;47.868;11.892;2023-07-29T02:33:50;15.20;99.90
5200;DHT22;2619;47.868;11.892;2023-07-29T02:36:16;15.20;99.90
5200;DHT22;2619;47.868;11.892;2023-07-29T02:38:42;15.10;99.90
5200;DHT22;2619;47.868;11.892;2023-07-29T02:41:09;15.20;99.90
5200;DHT22;2619;47.868;11.892;2023-07-29T02:43:35;15.20;99.90
5200;DHT22;2619;47.868;11.892;2023-07-29T02:46:02;15.20;99.90
5200;DHT22;2619;47.868;11.892;2023-07-29T02:48:27;15.20;99.90
5200;DHT22;2619;47.868;11.892;2023-07-29T02:50:54;15.20;99.90
5200;DHT22;2619;47.868;11.892;2023-07-29T02:53:19;15.10;99.90
5200;DHT22;2619;47.868;11.892;2023-07-29T02:55:45;15.10;99.90
5200;DHT22;2619;47.868;11.892;2023-07-29T02:58:11;15.10;99.90
5200;DHT22;2619;47.868;11.892;2023-07-29T03:00:36;15.10;99.90
5200;DHT22;2619;47.868;11.892;2023-07-29T03:03:02;15.00;99.90
5200;DHT22;2619;47.868;11.892;2023-07-29T03:05:28;14.90;99.90
5200;DHT22;2619;47.868;11.892;2023-07-29T03:07:53;14.90;99.90
5200;DHT22;2619;47.868;11.892;2023-07-29T03:10:19;14.90;99.90
5200;DHT22;2619;47.868;11.892;2023-07-29T03:12:46;14.90;99.90
5200;DHT22;2619;47.868;11.892;2023-07-29T03:15:12;15.00;99.90
5200;DHT22;2619;47.868;11.892;2023-07-29T03:17:37;15.00;99.90
5200;DHT22;2619;47.868;11.892;2023-07-29T03:20:03;15.00;99.90
5200;DHT22;2619;47.868;11.892;2023-07-29T03:22:29;15.10;99.90
5200;DHT22;2619;47.868;11.892;2023-07-29T03:24:54;15.10;99.90
5200;DHT22;2619;47.868;11.892;2023-07-29T03:27:20;15.20;99.90
5200;DHT22;2619;47.868;11.892;2023-07-29T03:29:45;15.30;99.90
5200;DHT22;2619;47.868;11.892;2023-07-29T03:32:11;15.30;99.90
5200;DHT22;2619;47.868;11.892;2023-07-29T03:34:37;15.40;99.90
5200;DHT22;2619;47.868;11.892;2023-07-29T03:37:02;15.40;99.90
5200;DHT22;2619;47.868;11.892;2023-07-29T03:39:28;15.40;99.90
5200;DHT22;2619;47.868;11.892;2023-07-29T03:41:53;15.50;99.90
5200;DHT22;2619;47.868;11.892;2023-07-29T03:44:19;15.50;99.90
5200;DHT22;2619;47.868;11.892;2023-07-29T03:46:45;15.60;99.90
5200;DHT22;2619;47.868;11.892;2023-07-29T03:49:11;15.60;99.90
5200;DHT22;2619;47.868;11.892;2023-07-29T03:51:36;15.60;99.90
5200;DHT22;2619;47.868;11.892;2023-07-29T03:54:02;15.60;99.90
5200;DHT22;2619;47.868;11.892;2023-07-29T03:56:27;15.60;99.90
5200;DHT22;2619;47.868;11.892;2023-07-29T03:58:53;15.60;99.90
5200;DHT22;2619;47.868;11.892;2023-07-29T04:01:19;15.70;99.90
5200;DHT22;2619;47.868;11.892;2023-07-29T04:03:45;15.70;99.90
5200;DHT22;2619;47.868;11.892;2023-07-29T04:06:11;15.70;99.90
5200;DHT22;2619;47.868;11.892;2023-07-29T04:08:37;15.70;99.90
5200;DHT22;2619;47.868;11.892;2023-07-29T04:11:03;15.70;99.90
5200;DHT22;2619;47.868;11.892;2023-07-29T04:13:28;15.80;99.90
5200;DHT22;2619;47.868;11.892;2023-07-29T04:15:54;15.80;99.90
5200;DHT22;2619;47.868;11.892;2023-07-29T04:18:20;15.90;99.90
5200;DHT22;2619;47.868;11.892;2023-07-29T04:20:45;15.90;99.90
5200;DHT22;2619;47.868;11.892;2023-07-29T04:23:11;16.00;99.90
5200;DHT22;2619;47.868;11.892;2023-07-29T04:25:36;16.00;99.90
5200;DHT22;2619;47.868;11.892;2023-07-29T04:28:02;16.00;99.90
5200;DHT22;2619;47.868;11.892;2023-07-29T04:30:30;16.20;99.90
5200;DHT22;2619;47.868;11.892;2023-07-29T04:32:55;16.30;99.90
5200;DHT22;2619;47.868;11.892;2023-07-29T04:35:21;16.40;99.90
5200;DHT22;2619;47.868;11.892;2023-07-29T04:37:46;16.40;99.90
5200;DHT22;2619;47.868;11.892;2023-07-29T04:40:13;16.50;99.90
5200;DHT22;2619;47.868;11.892;2023-07-29T04:42:39;16.50;99.90
5200;DHT22;2619;47.868;11.892;2023-07-29T04:45:05;16.50;99.90
5200;DHT22;2619;47.868;11.892;2023-07-29T04:47:30;16.60;99.90
5200;DHT22;2619;47.868;11.892;2023-07-29T04:49:56;16.70;99.90
5200;DHT22;2619;47.868;11.892;2023-07-29T04:52:21;16.80;99.90
5200;DHT22;2619;47.868;11.892;2023-07-29T04:54:47;16.90;99.90
5200;DHT22;2619;47.868;11.892;2023-07-29T04:57:13;17.00;99.90
5200;DHT22;2619;47.868;11.892;2023-07-29T04:59:38;17.00;99.90
5200;DHT22;2619;47.868;11.892;2023-07-29T05:02:04;17.30;99.90
5200;DHT22;2619;47.868;11.892;2023-07-29T05:04:30;17.80;99.90
5200;DHT22;2619;47.868;11.892;2023-07-29T05:06:55;18.20;99.90
5200;DHT22;2619;47.868;11.892;2023-07-29T05:09:21;18.50;99.90
5200;DHT22;2619;47.868;11.892;2023-07-29T05:11:46;18.50;99.90
5200;DHT22;2619;47.868;11.892;2023-07-29T05:14:17;18.80;99.90
5200;DHT22;2619;47.868;11.892;2023-07-29T05:16:43;19.10;99.90
5200;DHT22;2619;47.868;11.892;2023-07-29T05:19:09;19.20;99.90
5200;DHT22;2619;47.868;11.892;2023-07-29T05:21:37;19.20;99.90
5200;DHT22;2619;47.868;11.892;2023-07-29T05:24:03;19.30;99.90
5200;DHT22;2619;47.868;11.892;2023-07-29T05:26:29;19.50;99.90
5200;DHT22;2619;47.868;11.892;2023-07-29T05:28:54;19.70;99.90
5200;DHT22;2619;47.868;11.892;2023-07-29T05:31:20;20.00;99.90
5200;DHT22;2619;47.868;11.892;2023-07-29T05:33:45;20.20;99.90
5200;DHT22;2619;47.868;11.892;2023-07-29T05:36:11;20.40;99.90
5200;DHT22;2619;47.868;11.892;2023-07-29T05:38:37;20.70;99.90
5200;DHT22;2619;47.868;11.892;2023-07-29T05:41:02;20.90;99.90
5200;DHT22;2619;47.868;11.892;2023-07-29T05:43:28;21.10;99.90
5200;DHT22;2619;47.868;11.892;2023-07-29T05:45:53;21.20;99.90
5200;DHT22;2619;47.868;11.892;2023-07-29T05:48:20;21.10;99.90
5200;DHT22;2619;47.868;11.892;2023-07-29T05:50:45;20.70;99.90
5200;DHT22;2619;47.868;11.892;2023-07-29T05:53:11;20.40;99.90
5200;DHT22;2619;47.868;11.892;2023-07-29T05:55:37;20.20;99.90
5200;DHT22;2619;47.868;11.892;2023-07-29T05:58:02;19.80;99.90
5200;DHT22;2619;47.868;11.892;2023-07-29T06:00:28;19.60;99.90
5200;DHT22;2619;47.868;11.892;2023-07-29T06:02:53;19.60;99.90
5200;DHT22;2619;47.868;11.892;2023-07-29T06:05:19;19.70;99.90
5200;DHT22;2619;47.868;11.892;2023-07-29T06:07:44;19.60;99.90
5200;DHT22;2619;47.868;11.892;2023-07-29T06:10:15;19.70;99.90
5200;DHT22;2619;47.868;11.892;2023-07-29T06:12:45;19.70;99.90
5200;DHT22;2619;47.868;11.892;2023-07-29T06:15:10;19.70;99.90
5200;DHT22;2619;47.868;11.892;2023-07-29T06:17:37;19.60;99.90
5200;DHT22;2619;47.868;11.892;2023-07-29T06:20:03;19.40;99.90
5200;DHT22;2619;47.868;11.892;2023-07-29T06:22:29;19.00;99.90
5200;DHT22;2619;47.868;11.892;2023-07-29T06:24:55;18.90;99.90
5200;DHT22;2619;47.868;11.892;2023-07-29T06:27:20;18.70;99.90
5200;DHT22;2619;47.868;11.892;2023-07-29T06:29:46;18.30;99.90
5200;DHT22;2619;47.868;11.892;2023-07-29T06:32:11;18.00;99.90
5200;DHT22;2619;47.868;11.892;2023-07-29T06:34:37;17.70;99.90
5200;DHT22;2619;47.868;11.892;2023-07-29T06:37:02;17.50;99.90
5200;DHT22;2619;47.868;11.892;2023-07-29T06:39:28;17.30;99.90
5200;DHT22;2619;47.868;11.892;2023-07-29T06:41:53;17.20;99.90
5200;DHT22;2619;47.868;11.892;2023-07-29T06:44:19;17.30;99.90
5200;DHT22;2619;47.868;11.892;2023-07-29T06:46:45;17.30;99.90
5200;DHT22;2619;47.868;11.892;2023-07-29T06:49:10;17.30;99.90
5200;DHT22;2619;47.868;11.892;2023-07-29T06:51:36;17.30;99.90
5200;DHT22;2619;47.868;11.892;2023-07-29T06:54:02;17.30;99.90
5200;DHT22;2619;47.868;11.892;2023-07-29T06:56:28;17.30;99.90
5200;DHT22;2619;47.868;11.892;2023-07-29T06:58:53;17.50;99.90
5200;DHT22;2619;47.868;11.892;2023-07-29T07:01:19;17.70;99.90
5200;DHT22;2619;47.868;11.892;2023-07-29T07:03:44;17.80;99.90
5200;DHT22;2619;47.868;11.892;2023-07-29T07:06:10;17.90;99.90
5200;DHT22;2619;47.868;11.892;2023-07-29T07:08:36;17.90;99.90
5200;DHT22;2619;47.868;11.892;2023-07-29T07:11:01;17.80;99.90
5200;DHT22;2619;47.868;11.892;2023-07-29T07:13:27;17.60;99.90
5200;DHT22;2619;47.868;11.892;2023-07-29T07:15:56;17.60;99.90
5200;DHT22;2619;47.868;11.892;2023-07-29T07:18:21;17.40;99.90
5200;DHT22;2619;47.868;11.892;2023-07-29T07:20:50;17.30;99.90
5200;DHT22;2619;47.868;11.892;2023-07-29T07:23:16;17.20;99.90
5200;DHT22;2619;47.868;11.892;2023-07-29T07:25:42;17.20;99.90
5200;DHT22;2619;47.868;11.892;2023-07-29T07:28:09;17.20;99.90
5200;DHT22;2619;47.868;11.892;2023-07-29T07:30:34;17.20;99.90
5200;DHT22;2619;47.868;11.892;2023-07-29T07:33:00;17.30;99.90
5200;DHT22;2619;47.868;11.892;2023-07-29T07:35:26;17.30;99.90
5200;DHT22;2619;47.868;11.892;2023-07-29T07:37:51;17.30;99.90
5200;DHT22;2619;47.868;11.892;2023-07-29T07:40:17;17.40;99.90
5200;DHT22;2619;47.868;11.892;2023-07-29T07:42:42;17.50;99.90
5200;DHT22;2619;47.868;11.892;2023-07-29T07:45:08;17.60;99.90
5200;DHT22;2619;47.868;11.892;2023-07-29T07:47:33;17.70;99.90
5200;DHT22;2619;47.868;11.892;2023-07-29T07:49:59;17.90;99.90
5200;DHT22;2619;47.868;11.892;2023-07-29T07:52:25;18.00;99.90
5200;DHT22;2619;47.868;11.892;2023-07-29T07:54:54;18.20;99.90
5200;DHT22;2619;47.868;11.892;2023-07-29T07:57:22;18.50;99.90
5200;DHT22;2619;47.868;11.892;2023-07-29T07:59:48;18.80;99.90
5200;DHT22;2619;47.868;11.892;2023-07-29T08:02:14;19.10;99.90
5200;DHT22;2619;47.868;11.892;2023-07-29T08:04:39;19.40;99.90
5200;DHT22;2619;47.868;11.892;2023-07-29T08:07:05;19.60;99.90
5200;DHT22;2619;47.868;11.892;2023-07-29T08:09:31;19.80;99.90
5200;DHT22;2619;47.868;11.892;2023-07-29T08:11:56;20.00;99.90
5200;DHT22;2619;47.868;11.892;2023-07-29T08:14:22;20.10;99.90
5200;DHT22;2619;47.868;11.892;2023-07-29T08:16:47;20.20;99.90
5200;DHT22;2619;47.868;11.892;2023-07-29T08:19:13;20.20;99.90
5200;DHT22;2619;47.868;11.892;2023-07-29T08:21:39;20.60;99.90
5200;DHT22;2619;47.868;11.892;2023-07-29T08:24:04;20.80;99.90
5200;DHT22;2619;47.868;11.892;2023-07-29T08:26:32;21.00;99.90
5200;DHT22;2619;47.868;11.892;2023-07-29T08:28:57;21.00;99.90
5200;DHT22;2619;47.868;11.892;2023-07-29T08:31:23;21.10;99.90
5200;DHT22;2619;47.868;11.892;2023-07-29T08:33:48;21.40;99.90
5200;DHT22;2619;47.868;11.892;2023-07-29T08:36:14;21.40;99.90
5200;DHT22;2619;47.868;11.892;2023-07-29T08:38:39;21.40;99.90
5200;DHT22;2619;47.868;11.892;2023-07-29T08:41:32;21.60;99.90
5200;DHT22;2619;47.868;11.892;2023-07-29T08:46:42;21.70;99.90
5200;DHT22;2619;47.868;11.892;2023-07-29T08:49:08;21.80;99.90
5200;DHT22;2619;47.868;11.892;2023-07-29T08:51:36;21.90;99.90
5200;DHT22;2619;47.868;11.892;2023-07-29T08:54:03;22.00;99.90
5200;DHT22;2619;47.868;11.892;2023-07-29T08:56:29;22.00;99.90
5200;DHT22;2619;47.868;11.892;2023-07-29T08:58:56;22.10;99.90
5200;DHT22;2619;47.868;11.892;2023-07-29T09:01:21;22.20;99.90
5200;DHT22;2619;47.868;11.892;2023-07-29T09:03:47;22.30;99.90
5200;DHT22;2619;47.868;11.892;2023-07-29T09:06:14;22.50;99.90
5200;DHT22;2619;47.868;11.892;2023-07-29T09:08:40;22.60;99.90
5200;DHT22;2619;47.868;11.892;2023-07-29T09:11:06;22.60;99.90
5200;DHT22;2619;47.868;11.892;2023-07-29T09:13:32;22.60;99.90
5200;DHT22;2619;47.868;11.892;2023-07-29T09:15:58;22.70;99.90
5200;DHT22;2619;47.868;11.892;2023-07-29T09:18:26;23.00;99.90
5200;DHT22;2619;47.868;11.892;2023-07-29T09:20:53;23.10;99.90
5200;DHT22;2619;47.868;11.892;2023-07-29T09:23:18;23.20;99.90
5200;DHT22;2619;47.868;11.892;2023-07-29T09:25:46;23.20;99.90
5200;DHT22;2619;47.868;11.892;2023-07-29T09:28:14;23.20;99.90
5200;DHT22;2619;47.868;11.892;2023-07-29T09:30:41;23.20;99.90
5200;DHT22;2619;47.868;11.892;2023-07-29T09:33:08;23.40;99.90
5200;DHT22;2619;47.868;11.892;2023-07-29T09:35:35;23.30;99.90
5200;DHT22;2619;47.868;11.892;2023-07-29T09:38:02;23.30;99.90
5200;DHT22;2619;47.868;11.892;2023-07-29T09:40:36;23.50;99.90
5200;DHT22;2619;47.868;11.892;2023-07-29T09:43:03;23.80;99.90
5200;DHT22;2619;47.868;11.892;2023-07-29T09:45:29;24.20;99.90
5200;DHT22;2619;47.868;11.892;2023-07-29T09:47:57;24.40;99.90
5200;DHT22;2619;47.868;11.892;2023-07-29T09:50:24;24.60;99.90
5200;DHT22;2619;47.868;11.892;2023-07-29T09:52:51;24.50;99.90
5200;DHT22;2619;47.868;11.892;2023-07-29T09:55:22;24.60;99.90
5200;DHT22;2619;47.868;11.892;2023-07-29T09:57:56;25.00;99.90
5200;DHT22;2619;47.868;11.892;2023-07-29T10:00:21;25.50;99.90
5200;DHT22;2619;47.868;11.892;2023-07-29T10:02:47;25.90;99.90
5200;DHT22;2619;47.868;11.892;2023-07-29T10:05:13;26.20;99.90
5200;DHT22;2619;47.868;11.892;2023-07-29T10:07:39;26.20;99.90
5200;DHT22;2619;47.868;11.892;2023-07-29T10:10:07;26.30;99.90
5200;DHT22;2619;47.868;11.892;2023-07-29T10:12:34;26.50;99.90
5200;DHT22;2619;47.868;11.892;2023-07-29T10:15:05;26.50;99.90
5200;DHT22;2619;47.868;11.892;2023-07-29T10:17:35;26.70;99.90
5200;DHT22;2619;47.868;11.892;2023-07-29T10:20:01;26.60;99.90
5200;DHT22;2619;47.868;11.892;2023-07-29T10:22:32;26.80;99.90
5200;DHT22;2619;47.868;11.892;2023-07-29T10:25:03;26.80;99.90
5200;DHT22;2619;47.868;11.892;2023-07-29T10:27:42;26.80;99.90
5200;DHT22;2619;47.868;11.892;2023-07-29T10:30:12;27.30;99.90
5200;DHT22;2619;47.868;11.892;2023-07-29T10:32:38;27.50;99.90
5200;DHT22;2619;47.868;11.892;2023-07-29T10:35:07;27.50;99.90
5200;DHT22;2619;47.868;11.892;2023-07-29T10:37:33;27.40;99.90
5200;DHT22;2619;47.868;11.892;2023-07-29T10:39:58;27.50;99.90
5200;DHT22;2619;47.868;11.892;2023-07-29T10:42:24;27.50;99.90
5200;DHT22;2619;47.868;11.892;2023-07-29T10:44:52;27.40;99.90
5200;DHT22;2619;47.868;11.892;2023-07-29T10:47:20;27.50;99.90
5200;DHT22;2619;47.868;11.892;2023-07-29T10:49:49;27.50;99.90
5200;DHT22;2619;47.868;11.892;2023-07-29T10:52:17;27.50;99.90
5200;DHT22;2619;47.868;11.892;2023-07-29T10:54:53;27.50;99.90
5200;DHT22;2619;47.868;11.892;2023-07-29T10:57:31;27.80;99.90
5200;DHT22;2619;47.868;11.892;2023-07-29T10:59:58;28.10;99.90
5200;DHT22;2619;47.868;11.892;2023-07-29T11:02:32;27.90;99.90
5200;DHT22;2619;47.868;11.892;2023-07-29T11:05:08;27.80;99.90
5200;DHT22;2619;47.868;11.892;2023-07-29T11:08:03;27.60;99.90
5200;DHT22;2619;47.868;11.892;2023-07-29T11:10:44;27.50;99.90
5200;DHT22;2619;47.868;11.892;2023-07-29T11:13:10;27.40;99.90
5200;DHT22;2619;47.868;11.892;2023-07-29T11:15:39;27.40;99.90
5200;DHT22;2619;47.868;11.892;2023-07-29T11:18:05;27.00;99.90
5200;DHT22;2619;47.868;11.892;2023-07-29T11:20:33;27.00;99.90
5200;DHT22;2619;47.868;11.892;2023-07-29T11:23:00;27.20;99.90
5200;DHT22;2619;47.868;11.892;2023-07-29T11:25:28;27.40;99.90
5200;DHT22;2619;47.868;11.892;2023-07-29T11:27:57;27.30;99.90
5200;DHT22;2619;47.868;11.892;2023-07-29T11:30:23;27.30;99.90
5200;DHT22;2619;47.868;11.892;2023-07-29T11:32:53;27.50;99.90
5200;DHT22;2619;47.868;11.892;2023-07-29T11:35:19;27.70;99.90
5200;DHT22;2619;47.868;11.892;2023-07-29T11:37:50;27.70;99.90
5200;DHT22;2619;47.868;11.892;2023-07-29T11:40:22;28.00;99.90
5200;DHT22;2619;47.868;11.892;2023-07-29T11:42:49;28.20;99.90
5200;DHT22;2619;47.868;11.892;2023-07-29T11:45:19;28.40;99.90
5200;DHT22;2619;47.868;11.892;2023-07-29T11:47:45;28.40;99.90
5200;DHT22;2619;47.868;11.892;2023-07-29T11:50:12;28.10;99.90
5200;DHT22;2619;47.868;11.892;2023-07-29T11:52:42;28.00;99.90
5200;DHT22;2619;47.868;11.892;2023-07-29T11:55:09;27.90;99.90
5200;DHT22;2619;47.868;11.892;2023-07-29T11:57:36;27.90;99.90
5200;DHT22;2619;47.868;11.892;2023-07-29T12:00:04;27.90;99.90
5200;DHT22;2619;47.868;11.892;2023-07-29T12:02:32;27.70;99.90
5200;DHT22;2619;47.868;11.892;2023-07-29T12:04:58;27.60;99.90
5200;DHT22;2619;47.868;11.892;2023-07-29T12:07:24;27.50;99.90
5200;DHT22;2619;47.868;11.892;2023-07-29T12:09:50;27.30;99.90
5200;DHT22;2619;47.868;11.892;2023-07-29T12:12:16;27.20;99.90
5200;DHT22;2619;47.868;11.892;2023-07-29T12:14:45;26.90;99.90
5200;DHT22;2619;47.868;11.892;2023-07-29T12:17:13;27.20;99.90
5200;DHT22;2619;47.868;11.892;2023-07-29T12:19:40;27.50;99.90
5200;DHT22;2619;47.868;11.892;2023-07-29T12:22:07;27.80;99.90
5200;DHT22;2619;47.868;11.892;2023-07-29T12:24:39;28.20;99.90
5200;DHT22;2619;47.868;11.892;2023-07-29T12:27:05;28.60;99.90
5200;DHT22;2619;47.868;11.892;2023-07-29T12:29:31;28.50;99.90
5200;DHT22;2619;47.868;11.892;2023-07-29T12:32:03;28.40;99.90
5200;DHT22;2619;47.868;11.892;2023-07-29T12:34:30;28.30;99.90
5200;DHT22;2619;47.868;11.892;2023-07-29T12:36:58;28.20;99.90
5200;DHT22;2619;47.868;11.892;2023-07-29T12:39:28;28.20;99.90
5200;DHT22;2619;47.868;11.892;2023-07-29T12:41:56;28.40;99.90
5200;DHT22;2619;47.868;11.892;2023-07-29T12:44:25;28.20;99.90
5200;DHT22;2619;47.868;11.892;2023-07-29T12:46:51;28.20;99.90
5200;DHT22;2619;47.868;11.892;2023-07-29T12:49:17;28.30;99.90
5200;DHT22;2619;47.868;11.892;2023-07-29T12:51:43;28.60;99.90
5200;DHT22;2619;47.868;11.892;2023-07-29T12:54:09;28.90;99.90
5200;DHT22;2619;47.868;11.892;2023-07-29T12:56:34;29.10;99.90
5200;DHT22;2619;47.868;11.892;2023-07-29T12:59:01;29.40;99.90
5200;DHT22;2619;47.868;11.892;2023-07-29T13:01:27;29.50;99.90
5200;DHT22;2619;47.868;11.892;2023-07-29T13:03:53;29.60;99.90
5200;DHT22;2619;47.868;11.892;2023-07-29T13:06:19;29.40;99.90
5200;DHT22;2619;47.868;11.892;2023-07-29T13:08:45;29.10;99.90
5200;DHT22;2619;47.868;11.892;2023-07-29T13:11:11;28.80;99.90
5200;DHT22;2619;47.868;11.892;2023-07-29T13:13:37;28.70;99.90
5200;DHT22;2619;47.868;11.892;2023-07-29T13:16:03;28.60;99.90
5200;DHT22;2619;47.868;11.892;2023-07-29T13:18:29;28.70;99.90
5200;DHT22;2619;47.868;11.892;2023-07-29T13:20:55;29.00;99.90
5200;DHT22;2619;47.868;11.892;2023-07-29T13:23:21;29.20;99.90
5200;DHT22;2619;47.868;11.892;2023-07-29T13:25:47;29.10;99.90
5200;DHT22;2619;47.868;11.892;2023-07-29T13:28:12;29.20;99.90
5200;DHT22;2619;47.868;11.892;2023-07-29T13:30:39;29.40;99.90
5200;DHT22;2619;47.868;11.892;2023-07-29T13:33:05;29.10;99.90
5200;DHT22;2619;47.868;11.892;2023-07-29T13:35:31;28.90;99.90
5200;DHT22;2619;47.868;11.892;2023-07-29T13:37:56;28.50;99.90
5200;DHT22;2619;47.868;11.892;2023-07-29T13:40:22;28.70;99.90
5200;DHT22;2619;47.868;11.892;2023-07-29T13:42:47;29.00;99.90
5200;DHT22;2619;47.868;11.892;2023-07-29T13:45:13;29.10;99.90
5200;DHT22;2619;47.868;11.892;2023-07-29T13:47:39;29.10;99.90
5200;DHT22;2619;47.868;11.892;2023-07-29T13:50:05;28.90;99.90
5200;DHT22;2619;47.868;11.892;2023-07-29T13:52:32;28.80;99.90
5200;DHT22;2619;47.868;11.892;2023-07-29T13:54:58;28.40;99.90
5200;DHT22;2619;47.868;11.892;2023-07-29T13:57:24;28.20;99.90
5200;DHT22;2619;47.868;11.892;2023-07-29T13:59:49;28.10;99.90
5200;DHT22;2619;47.868;11.892;2023-07-29T14:02:15;27.80;99.90
5200;DHT22;2619;47.868;11.892;2023-07-29T14:04:40;27.40;99.90
5200;DHT22;2619;47.868;11.892;2023-07-29T14:07:06;26.90;99.90
5200;DHT22;2619;47.868;11.892;2023-07-29T14:09:31;26.60;99.90
5200;DHT22;2619;47.868;11.892;2023-07-29T14:11:57;26.50;99.90
5200;DHT22;2619;47.868;11.892;2023-07-29T14:14:23;26.30;99.90
5200;DHT22;2619;47.868;11.892;2023-07-29T14:16:48;26.20;99.90
5200;DHT22;2619;47.868;11.892;2023-07-29T14:19:14;26.20;99.90
5200;DHT22;2619;47.868;11.892;2023-07-29T14:21:40;26.50;99.90
5200;DHT22;2619;47.868;11.892;2023-07-29T14:24:05;26.90;99.90
5200;DHT22;2619;47.868;11.892;2023-07-29T14:26:31;26.90;99.90
5200;DHT22;2619;47.868;11.892;2023-07-29T14:28:57;26.90;99.90
5200;DHT22;2619;47.868;11.892;2023-07-29T14:31:22;26.80;99.90
5200;DHT22;2619;47.868;11.892;2023-07-29T14:33:48;26.90;99.90
5200;DHT22;2619;47.868;11.892;2023-07-29T14:36:17;27.00;99.90
5200;DHT22;2619;47.868;11.892;2023-07-29T14:38:43;27.10;99.90
5200;DHT22;2619;47.868;11.892;2023-07-29T14:41:08;26.90;99.90
5200;DHT22;2619;47.868;11.892;2023-07-29T14:43:35;26.80;99.90
5200;DHT22;2619;47.868;11.892;2023-07-29T14:46:01;26.90;99.90
5200;DHT22;2619;47.868;11.892;2023-07-29T14:48:27;26.80;99.90
5200;DHT22;2619;47.868;11.892;2023-07-29T14:50:53;26.50;99.90
5200;DHT22;2619;47.868;11.892;2023-07-29T14:53:18;26.20;99.90
5200;DHT22;2619;47.868;11.892;2023-07-29T14:55:44;25.70;99.90
5200;DHT22;2619;47.868;11.892;2023-07-29T14:58:09;25.30;99.90
5200;DHT22;2619;47.868;11.892;2023-07-29T15:00:35;24.90;99.90
5200;DHT22;2619;47.868;11.892;2023-07-29T15:03:00;24.60;99.90
5200;DHT22;2619;47.868;11.892;2023-07-29T15:05:26;24.30;99.90
5200;DHT22;2619;47.868;11.892;2023-07-29T15:07:52;23.80;99.90
5200;DHT22;2619;47.868;11.892;2023-07-29T15:10:17;22.50;99.90
5200;DHT22;2619;47.868;11.892;2023-07-29T15:12:44;21.50;99.90
5200;DHT22;2619;47.868;11.892;2023-07-29T15:15:10;21.00;99.90
5200;DHT22;2619;47.868;11.892;2023-07-29T15:17:37;20.80;99.90
5200;DHT22;2619;47.868;11.892;2023-07-29T15:20:03;20.80;99.90
5200;DHT22;2619;47.868;11.892;2023-07-29T15:22:29;20.70;99.90
5200;DHT22;2619;47.868;11.892;2023-07-29T15:24:55;20.70;99.90
5200;DHT22;2619;47.868;11.892;2023-07-29T15:27:21;20.70;99.90
5200;DHT22;2619;47.868;11.892;2023-07-29T15:29:47;20.60;99.90
5200;DHT22;2619;47.868;11.892;2023-07-29T15:32:13;20.70;99.90
5200;DHT22;2619;47.868;11.892;2023-07-29T15:34:38;20.70;99.90
5200;DHT22;2619;47.868;11.892;2023-07-29T15:37:04;20.70;99.90
5200;DHT22;2619;47.868;11.892;2023-07-29T15:39:30;20.70;99.90
5200;DHT22;2619;47.868;11.892;2023-07-29T15:41:56;20.70;99.90
5200;DHT22;2619;47.868;11.892;2023-07-29T15:44:21;20.60;99.90
5200;DHT22;2619;47.868;11.892;2023-07-29T15:46:47;20.60;99.90
5200;DHT22;2619;47.868;11.892;2023-07-29T15:49:13;20.60;99.90